Wind From: 11-12-2017 06:00 Until: 12-12-2017 06:00 warning for: Wind Level: Orange info button

Power and phone distribution networks may be disrupted for relatively long periods., Roofs and chimneys can be damaged. , Tree branches may break. , Vehicles can be deported. , Traffic may be disrupted, particularly on secondary roads in forest areas. Limit your trips. , Limit your speed in highway driving, especially if you drive a vehicle or hitch sensitive to wind. , Do not go for walks in forests or along the coast., In town, be vigilant against possible falling objects., Do not work on roofs and do not touch any electrical line fallen on the ground., Store or secure sensitive objects to wind or likely to be damaged., Always install power generators outside buildings. 


Meteo18 Weather Cam more information Meteo18 Weather Cam


Thunder radar more information blitzortung!


Rain radar more information rain snow radar


Visit our other weather sites:

Template documentation
and downloads

And another site



Weather Underground History page Text

Daily Summary for September 5, 2017 Units:  Both    English   Metric
« Previous Day
Next Day »
Daily Weekly Monthly Yearly Custom
  High: Low: Average:
Temperature: 73.2 °F /  22.9 °C 63.9 °F /  17.7 °C 68.2 °F /  20.1 °C
Dew Point: 62.4 °F /  16.9 °C 58.5 °F /  14.7 °C 60.8 °F /  16 °C
Humidity: 90 % 67 % 78 %
Wind Speed: 12 mph /  19.3 km/h - 3.5 mph /  5.6 km/h
Wind Gust: 17 mph /  27.4 km/h - -
Wind:- - WSW
Pressure: 30.2 in /  1021.9 hPa 30.1 in /  1020.2 hPa -
Precipitation: 0 in /  0.0 mm    
Historical Graphs
 
 
Tabular Data for September 5, 2017
Time Temperature Dew Point Pressure Wind Wind Speed Wind Gust Humidity Rainfall Rate (Hourly)
00:02 64.6 °F /  18.1 °C 59.4 °F /  15.2 °C 30.1 in /  1020.2 hPa Calm   1 mph /  1.6 km/h 83 % 0 in /  0.0 mm
00:07 64.6 °F /  18.1 °C 59 °F /  15.0 °C 30.1 in /  1020.2 hPa Calm   1 mph /  1.6 km/h 82 % 0 in /  0.0 mm
00:12 64.4 °F /  18.0 °C 58.5 °F /  14.7 °C 30.1 in /  1020.5 hPa Calm   1 mph /  1.6 km/h 81 % 0 in /  0.0 mm
00:17 64.4 °F /  18.0 °C 58.8 °F /  14.9 °C 30.1 in /  1020.2 hPa Calm   1 mph /  1.6 km/h 82 % 0 in /  0.0 mm
00:22 64.6 °F /  18.1 °C 59 °F /  15.0 °C 30.1 in /  1020.5 hPa Calm   1 mph /  1.6 km/h 82 % 0 in /  0.0 mm
00:32 64.6 °F /  18.1 °C 59 °F /  15.0 °C 30.1 in /  1020.5 hPa Calm     82 % 0 in /  0.0 mm
00:42 64.8 °F /  18.2 °C 59.2 °F /  15.1 °C 30.1 in /  1020.5 hPa Calm     82 % 0 in /  0.0 mm
00:47 64.9 °F /  18.3 °C 59.4 °F /  15.2 °C 30.1 in /  1020.5 hPa Calm     82 % 0 in /  0.0 mm
00:52 64.9 °F /  18.3 °C 59.4 °F /  15.2 °C 30.1 in /  1020.5 hPa Calm     82 % 0 in /  0.0 mm
00:57 64.9 °F /  18.3 °C 59.4 °F /  15.2 °C 30.1 in /  1020.5 hPa Calm     82 % 0 in /  0.0 mm
01:02 64.9 °F /  18.3 °C 59.4 °F /  15.2 °C 30.1 in /  1020.5 hPa Calm     82 % 0 in /  0.0 mm
01:07 64.9 °F /  18.3 °C 59.4 °F /  15.2 °C 30.1 in /  1020.5 hPa Calm     82 % 0 in /  0.0 mm
01:12 64.9 °F /  18.3 °C 59.4 °F /  15.2 °C 30.1 in /  1020.5 hPa Calm     82 % 0 in /  0.0 mm
01:17 64.9 °F /  18.3 °C 59.4 °F /  15.2 °C 30.1 in /  1020.5 hPa Calm     82 % 0 in /  0.0 mm
01:22 64.9 °F /  18.3 °C 59.4 °F /  15.2 °C 30.1 in /  1020.5 hPa Calm     82 % 0 in /  0.0 mm
01:27 64.9 °F /  18.3 °C 59.7 °F /  15.4 °C 30.1 in /  1020.5 hPa Calm     83 % 0 in /  0.0 mm
01:32 64.9 °F /  18.3 °C 59.7 °F /  15.4 °C 30.1 in /  1020.5 hPa Calm     83 % 0 in /  0.0 mm
01:37 64.9 °F /  18.3 °C 59.7 °F /  15.4 °C 30.1 in /  1020.5 hPa Calm     83 % 0 in /  0.0 mm
01:42 64.9 °F /  18.3 °C 59.7 °F /  15.4 °C 30.1 in /  1020.5 hPa Calm     83 % 0 in /  0.0 mm
01:47 64.9 °F /  18.3 °C 59.9 °F /  15.5 °C 30.1 in /  1020.5 hPa Calm     84 % 0 in /  0.0 mm
01:52 65.1 °F /  18.4 °C 60.1 °F /  15.6 °C 30.1 in /  1020.5 hPa Calm     84 % 0 in /  0.0 mm
02:02 65.7 °F /  18.7 °C 60.4 °F /  15.8 °C 30.1 in /  1020.2 hPa Calm     83 % 0 in /  0.0 mm
02:07 65.8 °F /  18.8 °C 60.6 °F /  15.9 °C 30.1 in /  1020.2 hPa Calm     83 % 0 in /  0.0 mm
02:12 66.2 °F /  19.0 °C 60.6 °F /  15.9 °C 30.1 in /  1020.2 hPa Calm     82 % 0 in /  0.0 mm
02:17 66.6 °F /  19.2 °C 61 °F /  16.1 °C 30.1 in /  1020.2 hPa WSW 2 mph /  3.2 km/h 2 mph /  3.2 km/h 82 % 0 in /  0.0 mm
02:22 66.7 °F /  19.3 °C 61 °F /  16.1 °C 30.1 in /  1020.5 hPa South 1 mph /  1.6 km/h 3 mph /  4.8 km/h 82 % 0 in /  0.0 mm
02:27 66.6 °F /  19.2 °C 60.6 °F /  15.9 °C 30.1 in /  1020.5 hPa Calm   3 mph /  4.8 km/h 81 % 0 in /  0.0 mm
02:32 65.8 °F /  18.8 °C 59.5 °F /  15.3 °C 30.1 in /  1020.5 hPa Calm   3 mph /  4.8 km/h 80 % 0 in /  0.0 mm
02:37 65.5 °F /  18.6 °C 59.2 °F /  15.1 °C 30.1 in /  1020.5 hPa ESE 1 mph /  1.6 km/h 2 mph /  3.2 km/h 80 % 0 in /  0.0 mm
02:42 65.7 °F /  18.7 °C 59.7 °F /  15.4 °C 30.1 in /  1020.5 hPa Calm   3 mph /  4.8 km/h 81 % 0 in /  0.0 mm
02:47 65.7 °F /  18.7 °C 59.7 °F /  15.4 °C 30.1 in /  1020.5 hPa ESE 1 mph /  1.6 km/h 3 mph /  4.8 km/h 81 % 0 in /  0.0 mm
02:52 65.7 °F /  18.7 °C 59.7 °F /  15.4 °C 30.1 in /  1020.5 hPa Calm   3 mph /  4.8 km/h 81 % 0 in /  0.0 mm
02:57 65.7 °F /  18.7 °C 60.1 °F /  15.6 °C 30.1 in /  1020.2 hPa Calm   3 mph /  4.8 km/h 82 % 0 in /  0.0 mm
03:02 65.7 °F /  18.7 °C 60.1 °F /  15.6 °C 30.1 in /  1020.2 hPa Calm   1 mph /  1.6 km/h 82 % 0 in /  0.0 mm
03:07 65.7 °F /  18.7 °C 60.1 °F /  15.6 °C 30.1 in /  1020.2 hPa Calm   1 mph /  1.6 km/h 82 % 0 in /  0.0 mm
03:17 65.5 °F /  18.6 °C 59.9 °F /  15.5 °C 30.1 in /  1020.5 hPa Calm   1 mph /  1.6 km/h 82 % 0 in /  0.0 mm
03:22 65.3 °F /  18.5 °C 59.7 °F /  15.4 °C 30.1 in /  1020.2 hPa Calm   1 mph /  1.6 km/h 82 % 0 in /  0.0 mm
03:32 65.1 °F /  18.4 °C 59.9 °F /  15.5 °C 30.1 in /  1020.5 hPa Calm   1 mph /  1.6 km/h 83 % 0 in /  0.0 mm
03:37 65.1 °F /  18.4 °C 59.9 °F /  15.5 °C 30.1 in /  1020.2 hPa Calm   1 mph /  1.6 km/h 83 % 0 in /  0.0 mm
03:47 65.3 °F /  18.5 °C 60.3 °F /  15.7 °C 30.1 in /  1020.5 hPa Calm   1 mph /  1.6 km/h 84 % 0 in /  0.0 mm
03:52 65.3 °F /  18.5 °C 60.3 °F /  15.7 °C 30.1 in /  1020.5 hPa Calm   1 mph /  1.6 km/h 84 % 0 in /  0.0 mm
03:57 65.5 °F /  18.6 °C 60.4 °F /  15.8 °C 30.1 in /  1020.2 hPa Calm   1 mph /  1.6 km/h 84 % 0 in /  0.0 mm
04:02 65.5 °F /  18.6 °C 60.4 °F /  15.8 °C 30.1 in /  1020.5 hPa Calm   1 mph /  1.6 km/h 84 % 0 in /  0.0 mm
04:07 65.5 °F /  18.6 °C 60.8 °F /  16.0 °C 30.1 in /  1020.2 hPa Calm   1 mph /  1.6 km/h 85 % 0 in /  0.0 mm
04:12 65.7 °F /  18.7 °C 61 °F /  16.1 °C 30.1 in /  1020.2 hPa Calm   1 mph /  1.6 km/h 85 % 0 in /  0.0 mm
04:17 65.7 °F /  18.7 °C 61 °F /  16.1 °C 30.1 in /  1020.2 hPa Calm   1 mph /  1.6 km/h 85 % 0 in /  0.0 mm
04:22 65.7 °F /  18.7 °C 61 °F /  16.1 °C 30.1 in /  1020.2 hPa Calm   1 mph /  1.6 km/h 85 % 0 in /  0.0 mm
04:32 65.7 °F /  18.7 °C 61 °F /  16.1 °C 30.1 in /  1020.2 hPa Calm     85 % 0 in /  0.0 mm
04:37 65.7 °F /  18.7 °C 61 °F /  16.1 °C 30.1 in /  1020.5 hPa Calm     85 % 0 in /  0.0 mm
04:42 65.7 °F /  18.7 °C 61 °F /  16.1 °C 30.1 in /  1020.5 hPa Calm     85 % 0 in /  0.0 mm
04:47 65.7 °F /  18.7 °C 61 °F /  16.1 °C 30.1 in /  1020.5 hPa Calm     85 % 0 in /  0.0 mm
04:52 65.7 °F /  18.7 °C 61 °F /  16.1 °C 30.1 in /  1020.5 hPa Calm     85 % 0 in /  0.0 mm
04:57 65.7 °F /  18.7 °C 61 °F /  16.1 °C 30.1 in /  1020.2 hPa Calm     85 % 0 in /  0.0 mm
05:02 65.7 °F /  18.7 °C 61 °F /  16.1 °C 30.1 in /  1020.5 hPa Calm     85 % 0 in /  0.0 mm
05:17 65.7 °F /  18.7 °C 61 °F /  16.1 °C 30.1 in /  1020.5 hPa Calm     85 % 0 in /  0.0 mm
05:22 65.7 °F /  18.7 °C 61 °F /  16.1 °C 30.1 in /  1020.5 hPa Calm     85 % 0 in /  0.0 mm
05:27 65.7 °F /  18.7 °C 61 °F /  16.1 °C 30.1 in /  1020.5 hPa Calm     85 % 0 in /  0.0 mm
05:32 65.7 °F /  18.7 °C 61 °F /  16.1 °C 30.1 in /  1020.5 hPa Calm     85 % 0 in /  0.0 mm
05:42 65.7 °F /  18.7 °C 61.3 °F /  16.3 °C 30.1 in /  1020.5 hPa South 1 mph /  1.6 km/h 2 mph /  3.2 km/h 86 % 0 in /  0.0 mm
05:47 65.7 °F /  18.7 °C 61.3 °F /  16.3 °C 30.1 in /  1020.5 hPa Calm   2 mph /  3.2 km/h 86 % 0 in /  0.0 mm
05:52 65.7 °F /  18.7 °C 61.3 °F /  16.3 °C 30.1 in /  1020.5 hPa Calm   2 mph /  3.2 km/h 86 % 0 in /  0.0 mm
05:57 65.7 °F /  18.7 °C 61.3 °F /  16.3 °C 30.1 in /  1020.5 hPa Calm   2 mph /  3.2 km/h 86 % 0 in /  0.0 mm
06:02 65.5 °F /  18.6 °C 61.5 °F /  16.4 °C 30.1 in /  1020.5 hPa Calm   2 mph /  3.2 km/h 87 % 0 in /  0.0 mm
06:12 65.5 °F /  18.6 °C 61.5 °F /  16.4 °C 30.1 in /  1020.5 hPa Calm   2 mph /  3.2 km/h 87 % 0 in /  0.0 mm
06:17 65.5 °F /  18.6 °C 61.5 °F /  16.4 °C 30.1 in /  1020.5 hPa South 1 mph /  1.6 km/h 2 mph /  3.2 km/h 87 % 0 in /  0.0 mm
06:22 65.5 °F /  18.6 °C 61.5 °F /  16.4 °C 30.1 in /  1020.5 hPa Calm   2 mph /  3.2 km/h 87 % 0 in /  0.0 mm
06:32 65.3 °F /  18.5 °C 61.7 °F /  16.5 °C 30.1 in /  1020.5 hPa SW 1 mph /  1.6 km/h 3 mph /  4.8 km/h 88 % 0 in /  0.0 mm
06:37 65.1 °F /  18.4 °C 61.5 °F /  16.4 °C 30.1 in /  1020.5 hPa SW 2 mph /  3.2 km/h 3 mph /  4.8 km/h 88 % 0 in /  0.0 mm
06:47 65.1 °F /  18.4 °C 61.5 °F /  16.4 °C 30.1 in /  1020.5 hPa SW 1 mph /  1.6 km/h 3 mph /  4.8 km/h 88 % 0 in /  0.0 mm
06:52 65.1 °F /  18.4 °C 61.5 °F /  16.4 °C 30.1 in /  1020.5 hPa Calm   3 mph /  4.8 km/h 88 % 0 in /  0.0 mm
06:57 64.9 °F /  18.3 °C 61.3 °F /  16.3 °C 30.1 in /  1020.5 hPa Calm   3 mph /  4.8 km/h 88 % 0 in /  0.0 mm
07:02 64.9 °F /  18.3 °C 61.3 °F /  16.3 °C 30.1 in /  1020.5 hPa Calm   3 mph /  4.8 km/h 88 % 0 in /  0.0 mm
07:12 64.6 °F /  18.1 °C 61.3 °F /  16.3 °C 30.1 in /  1020.5 hPa Calm   2 mph /  3.2 km/h 89 % 0 in /  0.0 mm
07:17 64.6 °F /  18.1 °C 61.3 °F /  16.3 °C 30.1 in /  1020.5 hPa Calm   3 mph /  4.8 km/h 89 % 0 in /  0.0 mm
07:22 64.2 °F /  17.9 °C 61 °F /  16.1 °C 30.1 in /  1020.5 hPa Calm   3 mph /  4.8 km/h 89 % 0 in /  0.0 mm
07:32 64 °F /  17.8 °C 61 °F /  16.1 °C 30.2 in /  1020.9 hPa Calm   2 mph /  3.2 km/h 90 % 0 in /  0.0 mm
07:37 64 °F /  17.8 °C 61 °F /  16.1 °C 30.2 in /  1020.9 hPa Calm   2 mph /  3.2 km/h 90 % 0 in /  0.0 mm
07:42 64 °F /  17.8 °C 61 °F /  16.1 °C 30.2 in /  1020.9 hPa Calm   2 mph /  3.2 km/h 90 % 0 in /  0.0 mm
07:47 64 °F /  17.8 °C 61 °F /  16.1 °C 30.2 in /  1020.9 hPa Calm   1 mph /  1.6 km/h 90 % 0 in /  0.0 mm
07:52 63.9 °F /  17.7 °C 60.8 °F /  16.0 °C 30.2 in /  1020.9 hPa SSW 1 mph /  1.6 km/h 1 mph /  1.6 km/h 90 % 0 in /  0.0 mm
07:57 63.9 °F /  17.7 °C 60.8 °F /  16.0 °C 30.2 in /  1020.9 hPa SSW 1 mph /  1.6 km/h 2 mph /  3.2 km/h 90 % 0 in /  0.0 mm
08:02 63.9 °F /  17.7 °C 60.8 °F /  16.0 °C 30.2 in /  1020.9 hPa Calm   3 mph /  4.8 km/h 90 % 0 in /  0.0 mm
08:12 64 °F /  17.8 °C 61 °F /  16.1 °C 30.2 in /  1020.9 hPa SSW 2 mph /  3.2 km/h 3 mph /  4.8 km/h 90 % 0 in /  0.0 mm
08:17 64.2 °F /  17.9 °C 61.2 °F /  16.2 °C 30.2 in /  1020.9 hPa SW 1 mph /  1.6 km/h 4 mph /  6.4 km/h 90 % 0 in /  0.0 mm
08:27 64.6 °F /  18.1 °C 61.3 °F /  16.3 °C 30.2 in /  1020.9 hPa SW 3 mph /  4.8 km/h 4 mph /  6.4 km/h 89 % 0 in /  0.0 mm
08:32 64.8 °F /  18.2 °C 61.5 °F /  16.4 °C 30.2 in /  1020.9 hPa WSW 3 mph /  4.8 km/h 3 mph /  4.8 km/h 89 % 0 in /  0.0 mm
08:42 64.9 °F /  18.3 °C 61.7 °F /  16.5 °C 30.2 in /  1020.9 hPa WSW 2 mph /  3.2 km/h 7 mph /  11.3 km/h 89 % 0 in /  0.0 mm
08:47 64.9 °F /  18.3 °C 61.3 °F /  16.3 °C 30.2 in /  1020.9 hPa West 3 mph /  4.8 km/h 7 mph /  11.3 km/h 88 % 0 in /  0.0 mm
08:52 64.9 °F /  18.3 °C 61 °F /  16.1 °C 30.2 in /  1020.9 hPa SW 4 mph /  6.4 km/h 6 mph /  9.7 km/h 87 % 0 in /  0.0 mm
08:57 64.9 °F /  18.3 °C 61 °F /  16.1 °C 30.2 in /  1021.2 hPa WSW 5 mph /  8.0 km/h 8 mph /  12.9 km/h 87 % 0 in /  0.0 mm
09:02 64.9 °F /  18.3 °C 60.6 °F /  15.9 °C 30.2 in /  1021.2 hPa SW 4 mph /  6.4 km/h 8 mph /  12.9 km/h 86 % 0 in /  0.0 mm
09:12 64.9 °F /  18.3 °C 60.6 °F /  15.9 °C 30.2 in /  1021.2 hPa WSW 3 mph /  4.8 km/h 9 mph /  14.5 km/h 86 % 0 in /  0.0 mm
09:17 64.9 °F /  18.3 °C 60.6 °F /  15.9 °C 30.2 in /  1021.2 hPa WSW 5 mph /  8.0 km/h 9 mph /  14.5 km/h 86 % 0 in /  0.0 mm
09:22 64.9 °F /  18.3 °C 60.3 °F /  15.7 °C 30.2 in /  1021.2 hPa WSW 5 mph /  8.0 km/h 8 mph /  12.9 km/h 85 % 0 in /  0.0 mm
09:32 65.3 °F /  18.5 °C 60.6 °F /  15.9 °C 30.2 in /  1021.2 hPa West 4 mph /  6.4 km/h 10 mph /  16.1 km/h 85 % 0 in /  0.0 mm
09:37 65.7 °F /  18.7 °C 60.6 °F /  15.9 °C 30.2 in /  1021.2 hPa SW 4 mph /  6.4 km/h 10 mph /  16.1 km/h 84 % 0 in /  0.0 mm
09:42 66 °F /  18.9 °C 60.6 °F /  15.9 °C 30.2 in /  1020.9 hPa Calm   10 mph /  16.1 km/h 83 % 0 in /  0.0 mm
09:47 65.8 °F /  18.8 °C 60.3 °F /  15.7 °C 30.2 in /  1021.2 hPa West 5 mph /  8.0 km/h 10 mph /  16.1 km/h 82 % 0 in /  0.0 mm
09:52 65.7 °F /  18.7 °C 60.4 °F /  15.8 °C 30.2 in /  1021.2 hPa West 5 mph /  8.0 km/h 8 mph /  12.9 km/h 83 % 0 in /  0.0 mm
09:57 65.7 °F /  18.7 °C 60.4 °F /  15.8 °C 30.2 in /  1021.2 hPa SW 4 mph /  6.4 km/h 8 mph /  12.9 km/h 83 % 0 in /  0.0 mm
10:02 65.8 °F /  18.8 °C 60.6 °F /  15.9 °C 30.2 in /  1020.9 hPa SSW 4 mph /  6.4 km/h 9 mph /  14.5 km/h 83 % 0 in /  0.0 mm
10:12 66 °F /  18.9 °C 60.4 °F /  15.8 °C 30.2 in /  1021.2 hPa SW 5 mph /  8.0 km/h 12 mph /  19.3 km/h 82 % 0 in /  0.0 mm
10:17 66.2 °F /  19.0 °C 60.8 °F /  16.0 °C 30.2 in /  1021.2 hPa SW 3 mph /  4.8 km/h 12 mph /  19.3 km/h 83 % 0 in /  0.0 mm
10:22 66.2 °F /  19.0 °C 60.6 °F /  15.9 °C 30.2 in /  1021.2 hPa WSW 4 mph /  6.4 km/h 12 mph /  19.3 km/h 82 % 0 in /  0.0 mm
10:32 66.4 °F /  19.1 °C 60.8 °F /  16.0 °C 30.2 in /  1021.2 hPa SW 6 mph /  9.7 km/h 9 mph /  14.5 km/h 82 % 0 in /  0.0 mm
10:37 66.6 °F /  19.2 °C 60.6 °F /  15.9 °C 30.2 in /  1021.2 hPa SSW 3 mph /  4.8 km/h 7 mph /  11.3 km/h 81 % 0 in /  0.0 mm
10:42 66.6 °F /  19.2 °C 61 °F /  16.1 °C 30.2 in /  1021.2 hPa Calm   8 mph /  12.9 km/h 82 % 0 in /  0.0 mm
10:47 66.7 °F /  19.3 °C 61 °F /  16.1 °C 30.2 in /  1021.2 hPa SW 4 mph /  6.4 km/h 8 mph /  12.9 km/h 82 % 0 in /  0.0 mm
11:02 67.3 °F /  19.6 °C 61 °F /  16.1 °C 30.2 in /  1021.6 hPa SW 3 mph /  4.8 km/h 10 mph /  16.1 km/h 80 % 0 in /  0.0 mm
11:07 67.6 °F /  19.8 °C 61 °F /  16.1 °C 30.2 in /  1021.2 hPa WSW 3 mph /  4.8 km/h 10 mph /  16.1 km/h 79 % 0 in /  0.0 mm
11:12 67.6 °F /  19.8 °C 60.6 °F /  15.9 °C 30.2 in /  1021.2 hPa SW 4 mph /  6.4 km/h 8 mph /  12.9 km/h 78 % 0 in /  0.0 mm
11:17 68.4 °F /  20.2 °C 61.5 °F /  16.4 °C 30.2 in /  1021.2 hPa SW 7 mph /  11.3 km/h 8 mph /  12.9 km/h 79 % 0 in /  0.0 mm
11:22 68.4 °F /  20.2 °C 61.2 °F /  16.2 °C 30.2 in /  1021.2 hPa SW 6 mph /  9.7 km/h 9 mph /  14.5 km/h 78 % 0 in /  0.0 mm
11:27 68 °F /  20.0 °C 60.4 °F /  15.8 °C 30.2 in /  1021.6 hPa SW 4 mph /  6.4 km/h 12 mph /  19.3 km/h 77 % 0 in /  0.0 mm
11:32 68 °F /  20.0 °C 60.4 °F /  15.8 °C 30.2 in /  1021.6 hPa SW 6 mph /  9.7 km/h 12 mph /  19.3 km/h 77 % 0 in /  0.0 mm
11:37 68.4 °F /  20.2 °C 60.8 °F /  16.0 °C 30.2 in /  1021.2 hPa SW 8 mph /  12.9 km/h 12 mph /  19.3 km/h 77 % 0 in /  0.0 mm
11:42 68.2 °F /  20.1 °C 60.3 °F /  15.7 °C 30.2 in /  1021.2 hPa WSW 9 mph /  14.5 km/h 13 mph /  20.9 km/h 76 % 0 in /  0.0 mm
11:47 68.2 °F /  20.1 °C 60.6 °F /  15.9 °C 30.2 in /  1021.2 hPa SW 5 mph /  8.0 km/h 13 mph /  20.9 km/h 77 % 0 in /  0.0 mm
11:52 68.5 °F /  20.3 °C 61 °F /  16.1 °C 30.2 in /  1021.2 hPa West 5 mph /  8.0 km/h 13 mph /  20.9 km/h 77 % 0 in /  0.0 mm
12:02 68.9 °F /  20.5 °C 61 °F /  16.1 °C 30.2 in /  1021.2 hPa SW 5 mph /  8.0 km/h 11 mph /  17.7 km/h 76 % 0 in /  0.0 mm
12:07 69.1 °F /  20.6 °C 60.8 °F /  16.0 °C 30.2 in /  1021.2 hPa South 8 mph /  12.9 km/h 11 mph /  17.7 km/h 75 % 0 in /  0.0 mm
12:12 69.6 °F /  20.9 °C 61 °F /  16.1 °C 30.2 in /  1021.2 hPa SW 12 mph /  19.3 km/h 12 mph /  19.3 km/h 74 % 0 in /  0.0 mm
12:17 69.6 °F /  20.9 °C 60.6 °F /  15.9 °C 30.2 in /  1021.2 hPa SSW 5 mph /  8.0 km/h 13 mph /  20.9 km/h 73 % 0 in /  0.0 mm
12:22 69.4 °F /  20.8 °C 60.8 °F /  16.0 °C 30.2 in /  1021.2 hPa SW 8 mph /  12.9 km/h 13 mph /  20.9 km/h 74 % 0 in /  0.0 mm
12:32 70.3 °F /  21.3 °C 61.3 °F /  16.3 °C 30.2 in /  1021.2 hPa SW 6 mph /  9.7 km/h 11 mph /  17.7 km/h 73 % 0 in /  0.0 mm
12:42 71.2 °F /  21.8 °C 61.3 °F /  16.3 °C 30.2 in /  1020.9 hPa SW 5 mph /  8.0 km/h 14 mph /  22.5 km/h 71 % 0 in /  0.0 mm
12:47 71.4 °F /  21.9 °C 61.2 °F /  16.2 °C 30.2 in /  1020.9 hPa SSW 6 mph /  9.7 km/h 14 mph /  22.5 km/h 70 % 0 in /  0.0 mm
12:52 71.8 °F /  22.1 °C 61 °F /  16.1 °C 30.2 in /  1020.9 hPa West 7 mph /  11.3 km/h 14 mph /  22.5 km/h 69 % 0 in /  0.0 mm
12:57 72.3 °F /  22.4 °C 61.2 °F /  16.2 °C 30.2 in /  1020.9 hPa SW 8 mph /  12.9 km/h 14 mph /  22.5 km/h 68 % 0 in /  0.0 mm
13:02 72 °F /  22.2 °C 61.2 °F /  16.2 °C 30.2 in /  1020.9 hPa West 5 mph /  8.0 km/h 15 mph /  24.1 km/h 69 % 0 in /  0.0 mm
13:07 72 °F /  22.2 °C 60.8 °F /  16.0 °C 30.2 in /  1020.9 hPa West 6 mph /  9.7 km/h 15 mph /  24.1 km/h 68 % 0 in /  0.0 mm
13:12 72 °F /  22.2 °C 61.2 °F /  16.2 °C 30.2 in /  1020.9 hPa WSW 8 mph /  12.9 km/h 15 mph /  24.1 km/h 69 % 0 in /  0.0 mm
13:17 72.3 °F /  22.4 °C 61.2 °F /  16.2 °C 30.2 in /  1020.9 hPa West 3 mph /  4.8 km/h 14 mph /  22.5 km/h 68 % 0 in /  0.0 mm
13:22 72.7 °F /  22.6 °C 61.2 °F /  16.2 °C 30.2 in /  1020.9 hPa WSW 5 mph /  8.0 km/h 14 mph /  22.5 km/h 67 % 0 in /  0.0 mm
13:27 72.3 °F /  22.4 °C 60.8 °F /  16.0 °C 30.2 in /  1020.9 hPa WSW 8 mph /  12.9 km/h 15 mph /  24.1 km/h 67 % 0 in /  0.0 mm
13:32 72.1 °F /  22.3 °C 61 °F /  16.1 °C 30.2 in /  1020.9 hPa SW 7 mph /  11.3 km/h 15 mph /  24.1 km/h 68 % 0 in /  0.0 mm
13:37 71.8 °F /  22.1 °C 61 °F /  16.1 °C 30.2 in /  1020.9 hPa West 5 mph /  8.0 km/h 15 mph /  24.1 km/h 69 % 0 in /  0.0 mm
13:42 71.6 °F /  22.0 °C 61.3 °F /  16.3 °C 30.2 in /  1020.9 hPa WSW 8 mph /  12.9 km/h 12 mph /  19.3 km/h 70 % 0 in /  0.0 mm
13:47 71.4 °F /  21.9 °C 61.5 °F /  16.4 °C 30.2 in /  1020.9 hPa WSW 8 mph /  12.9 km/h 12 mph /  19.3 km/h 71 % 0 in /  0.0 mm
13:52 71.2 °F /  21.8 °C 61.3 °F /  16.3 °C 30.1 in /  1020.5 hPa SSW 9 mph /  14.5 km/h 12 mph /  19.3 km/h 71 % 0 in /  0.0 mm
13:57 71.4 °F /  21.9 °C 60.8 °F /  16.0 °C 30.1 in /  1020.5 hPa SW 11 mph /  17.7 km/h 13 mph /  20.9 km/h 69 % 0 in /  0.0 mm
14:02 71.6 °F /  22.0 °C 60.8 °F /  16.0 °C 30.1 in /  1020.5 hPa WSW 9 mph /  14.5 km/h 13 mph /  20.9 km/h 69 % 0 in /  0.0 mm
14:07 71.4 °F /  21.9 °C 60.8 °F /  16.0 °C 30.1 in /  1020.5 hPa West 3 mph /  4.8 km/h 13 mph /  20.9 km/h 69 % 0 in /  0.0 mm
14:12 71.4 °F /  21.9 °C 61.2 °F /  16.2 °C 30.2 in /  1020.9 hPa WSW 6 mph /  9.7 km/h 12 mph /  19.3 km/h 70 % 0 in /  0.0 mm
14:17 71.2 °F /  21.8 °C 61 °F /  16.1 °C 30.1 in /  1020.5 hPa WSW 6 mph /  9.7 km/h 12 mph /  19.3 km/h 70 % 0 in /  0.0 mm
14:22 71.1 °F /  21.7 °C 61.2 °F /  16.2 °C 30.2 in /  1020.9 hPa West 5 mph /  8.0 km/h 13 mph /  20.9 km/h 71 % 0 in /  0.0 mm
14:27 71.1 °F /  21.7 °C 61.2 °F /  16.2 °C 30.2 in /  1020.9 hPa SW 9 mph /  14.5 km/h 13 mph /  20.9 km/h 71 % 0 in /  0.0 mm
14:32 71.1 °F /  21.7 °C 60.8 °F /  16.0 °C 30.2 in /  1020.9 hPa SW 4 mph /  6.4 km/h 12 mph /  19.3 km/h 70 % 0 in /  0.0 mm
14:37 71.2 °F /  21.8 °C 60.6 °F /  15.9 °C 30.2 in /  1020.9 hPa SW 7 mph /  11.3 km/h 12 mph /  19.3 km/h 69 % 0 in /  0.0 mm
14:42 71.4 °F /  21.9 °C 60.3 °F /  15.7 °C 30.2 in /  1020.9 hPa SW 3 mph /  4.8 km/h 11 mph /  17.7 km/h 68 % 0 in /  0.0 mm
14:52 71.6 °F /  22.0 °C 60.4 °F /  15.8 °C 30.2 in /  1020.9 hPa West 3 mph /  4.8 km/h 13 mph /  20.9 km/h 68 % 0 in /  0.0 mm
14:57 71.6 °F /  22.0 °C 60.1 °F /  15.6 °C 30.2 in /  1020.9 hPa SW 5 mph /  8.0 km/h 13 mph /  20.9 km/h 67 % 0 in /  0.0 mm
15:02 71.4 °F /  21.9 °C 60.3 °F /  15.7 °C 30.2 in /  1020.9 hPa WSW 7 mph /  11.3 km/h 13 mph /  20.9 km/h 68 % 0 in /  0.0 mm
15:07 71.1 °F /  21.7 °C 60.8 °F /  16.0 °C 30.2 in /  1020.9 hPa WSW 5 mph /  8.0 km/h 15 mph /  24.1 km/h 70 % 0 in /  0.0 mm
15:17 70.7 °F /  21.5 °C 60.4 °F /  15.8 °C 30.2 in /  1020.9 hPa WNW 6 mph /  9.7 km/h 15 mph /  24.1 km/h 70 % 0 in /  0.0 mm
15:22 70.9 °F /  21.6 °C 61 °F /  16.1 °C 30.2 in /  1020.9 hPa WNW 4 mph /  6.4 km/h 12 mph /  19.3 km/h 71 % 0 in /  0.0 mm
15:27 71.1 °F /  21.7 °C 60.8 °F /  16.0 °C 30.2 in /  1020.9 hPa WNW 4 mph /  6.4 km/h 12 mph /  19.3 km/h 70 % 0 in /  0.0 mm
15:32 71.2 °F /  21.8 °C 61 °F /  16.1 °C 30.2 in /  1021.2 hPa West 4 mph /  6.4 km/h 10 mph /  16.1 km/h 70 % 0 in /  0.0 mm
15:42 71.2 °F /  21.8 °C 61 °F /  16.1 °C 30.2 in /  1020.9 hPa West 6 mph /  9.7 km/h 13 mph /  20.9 km/h 70 % 0 in /  0.0 mm
15:47 71.2 °F /  21.8 °C 60.6 °F /  15.9 °C 30.2 in /  1020.9 hPa West 8 mph /  12.9 km/h 13 mph /  20.9 km/h 69 % 0 in /  0.0 mm
15:52 71.2 °F /  21.8 °C 61 °F /  16.1 °C 30.2 in /  1020.9 hPa WSW 9 mph /  14.5 km/h 11 mph /  17.7 km/h 70 % 0 in /  0.0 mm
15:57 71.1 °F /  21.7 °C 61.2 °F /  16.2 °C 30.2 in /  1020.9 hPa West 8 mph /  12.9 km/h 13 mph /  20.9 km/h 71 % 0 in /  0.0 mm
16:02 70.9 °F /  21.6 °C 61 °F /  16.1 °C 30.2 in /  1020.9 hPa WSW 3 mph /  4.8 km/h 13 mph /  20.9 km/h 71 % 0 in /  0.0 mm
16:07 71.2 °F /  21.8 °C 61.3 °F /  16.3 °C 30.2 in /  1020.9 hPa WNW 6 mph /  9.7 km/h 13 mph /  20.9 km/h 71 % 0 in /  0.0 mm
16:12 71.4 °F /  21.9 °C 61.2 °F /  16.2 °C 30.2 in /  1020.9 hPa SW 6 mph /  9.7 km/h 13 mph /  20.9 km/h 70 % 0 in /  0.0 mm
16:17 71.8 °F /  22.1 °C 60.6 °F /  15.9 °C 30.2 in /  1020.9 hPa WSW 4 mph /  6.4 km/h 11 mph /  17.7 km/h 68 % 0 in /  0.0 mm
16:22 71.8 °F /  22.1 °C 60.6 °F /  15.9 °C 30.2 in /  1020.9 hPa WSW 5 mph /  8.0 km/h 14 mph /  22.5 km/h 68 % 0 in /  0.0 mm
16:27 72.1 °F /  22.3 °C 61 °F /  16.1 °C 30.2 in /  1020.9 hPa West 6 mph /  9.7 km/h 15 mph /  24.1 km/h 68 % 0 in /  0.0 mm
16:37 72.1 °F /  22.3 °C 61 °F /  16.1 °C 30.1 in /  1020.5 hPa WSW 6 mph /  9.7 km/h 15 mph /  24.1 km/h 68 % 0 in /  0.0 mm
16:42 72.3 °F /  22.4 °C 61.2 °F /  16.2 °C 30.2 in /  1020.9 hPa WSW 3 mph /  4.8 km/h 14 mph /  22.5 km/h 68 % 0 in /  0.0 mm
16:47 72.3 °F /  22.4 °C 61.5 °F /  16.4 °C 30.1 in /  1020.5 hPa West 7 mph /  11.3 km/h 14 mph /  22.5 km/h 69 % 0 in /  0.0 mm
16:52 72.3 °F /  22.4 °C 61.5 °F /  16.4 °C 30.1 in /  1020.5 hPa West 5 mph /  8.0 km/h 12 mph /  19.3 km/h 69 % 0 in /  0.0 mm
16:57 72.7 °F /  22.6 °C 61.9 °F /  16.6 °C 30.1 in /  1020.5 hPa SSW 4 mph /  6.4 km/h 12 mph /  19.3 km/h 69 % 0 in /  0.0 mm
17:02 73.2 °F /  22.9 °C 62.1 °F /  16.7 °C 30.1 in /  1020.5 hPa SW 4 mph /  6.4 km/h 12 mph /  19.3 km/h 68 % 0 in /  0.0 mm
17:07 73.2 °F /  22.9 °C 61.5 °F /  16.4 °C 30.1 in /  1020.5 hPa West 8 mph /  12.9 km/h 10 mph /  16.1 km/h 67 % 0 in /  0.0 mm
17:12 73 °F /  22.8 °C 61.5 °F /  16.4 °C 30.1 in /  1020.5 hPa WSW 10 mph /  16.1 km/h 12 mph /  19.3 km/h 67 % 0 in /  0.0 mm
17:17 72.9 °F /  22.7 °C 61.3 °F /  16.3 °C 30.1 in /  1020.5 hPa West 4 mph /  6.4 km/h 14 mph /  22.5 km/h 67 % 0 in /  0.0 mm
17:22 72.9 °F /  22.7 °C 61.3 °F /  16.3 °C 30.1 in /  1020.5 hPa SSW 4 mph /  6.4 km/h 14 mph /  22.5 km/h 67 % 0 in /  0.0 mm
17:27 72.7 °F /  22.6 °C 61.5 °F /  16.4 °C 30.1 in /  1020.5 hPa West 3 mph /  4.8 km/h 14 mph /  22.5 km/h 68 % 0 in /  0.0 mm
17:32 72.7 °F /  22.6 °C 61.5 °F /  16.4 °C 30.1 in /  1020.2 hPa WNW 7 mph /  11.3 km/h 12 mph /  19.3 km/h 68 % 0 in /  0.0 mm
17:37 72.7 °F /  22.6 °C 61.9 °F /  16.6 °C 30.1 in /  1020.5 hPa WSW 6 mph /  9.7 km/h 16 mph /  25.7 km/h 69 % 0 in /  0.0 mm
17:42 72.3 °F /  22.4 °C 61.5 °F /  16.4 °C 30.1 in /  1020.5 hPa WSW 7 mph /  11.3 km/h 16 mph /  25.7 km/h 69 % 0 in /  0.0 mm
17:47 72.3 °F /  22.4 °C 61.5 °F /  16.4 °C 30.1 in /  1020.5 hPa NW 3 mph /  4.8 km/h 16 mph /  25.7 km/h 69 % 0 in /  0.0 mm
17:52 72.3 °F /  22.4 °C 61.5 °F /  16.4 °C 30.1 in /  1020.5 hPa WSW 8 mph /  12.9 km/h 15 mph /  24.1 km/h 69 % 0 in /  0.0 mm
17:57 72 °F /  22.2 °C 61.7 °F /  16.5 °C 30.1 in /  1020.5 hPa WNW 10 mph /  16.1 km/h 15 mph /  24.1 km/h 70 % 0 in /  0.0 mm
18:02 72 °F /  22.2 °C 61.7 °F /  16.5 °C 30.1 in /  1020.5 hPa SSW 6 mph /  9.7 km/h 17 mph /  27.4 km/h 70 % 0 in /  0.0 mm
18:12 71.6 °F /  22.0 °C 62.1 °F /  16.7 °C 30.1 in /  1020.5 hPa WSW 11 mph /  17.7 km/h 17 mph /  27.4 km/h 72 % 0 in /  0.0 mm
18:17 71.4 °F /  21.9 °C 61.9 °F /  16.6 °C 30.1 in /  1020.5 hPa West 10 mph /  16.1 km/h 15 mph /  24.1 km/h 72 % 0 in /  0.0 mm
18:22 71.2 °F /  21.8 °C 61.3 °F /  16.3 °C 30.1 in /  1020.5 hPa WSW 4 mph /  6.4 km/h 14 mph /  22.5 km/h 71 % 0 in /  0.0 mm
18:32 71.4 °F /  21.9 °C 61.2 °F /  16.2 °C 30.1 in /  1020.5 hPa SW 9 mph /  14.5 km/h 13 mph /  20.9 km/h 70 % 0 in /  0.0 mm
18:42 71.4 °F /  21.9 °C 61.5 °F /  16.4 °C 30.1 in /  1020.5 hPa WSW 6 mph /  9.7 km/h 13 mph /  20.9 km/h 71 % 0 in /  0.0 mm
18:47 71.6 °F /  22.0 °C 61.7 °F /  16.5 °C 30.1 in /  1020.5 hPa SW 8 mph /  12.9 km/h 13 mph /  20.9 km/h 71 % 0 in /  0.0 mm
18:52 71.4 °F /  21.9 °C 61.9 °F /  16.6 °C 30.1 in /  1020.5 hPa SW 8 mph /  12.9 km/h 13 mph /  20.9 km/h 72 % 0 in /  0.0 mm
18:57 71.4 °F /  21.9 °C 61.9 °F /  16.6 °C 30.1 in /  1020.5 hPa SW 6 mph /  9.7 km/h 13 mph /  20.9 km/h 72 % 0 in /  0.0 mm
19:02 71.6 °F /  22.0 °C 62.1 °F /  16.7 °C 30.1 in /  1020.5 hPa WSW 7 mph /  11.3 km/h 13 mph /  20.9 km/h 72 % 0 in /  0.0 mm
19:12 71.6 °F /  22.0 °C 62.1 °F /  16.7 °C 30.1 in /  1020.5 hPa WSW 6 mph /  9.7 km/h 12 mph /  19.3 km/h 72 % 0 in /  0.0 mm
19:17 71.4 °F /  21.9 °C 62.2 °F /  16.8 °C 30.1 in /  1020.5 hPa SW 8 mph /  12.9 km/h 12 mph /  19.3 km/h 73 % 0 in /  0.0 mm
19:22 71.4 °F /  21.9 °C 61.9 °F /  16.6 °C 30.1 in /  1020.5 hPa SW 5 mph /  8.0 km/h 12 mph /  19.3 km/h 72 % 0 in /  0.0 mm
19:27 71.4 °F /  21.9 °C 61.9 °F /  16.6 °C 30.1 in /  1020.5 hPa SW 10 mph /  16.1 km/h 10 mph /  16.1 km/h 72 % 0 in /  0.0 mm
19:32 71.4 °F /  21.9 °C 61.9 °F /  16.6 °C 30.1 in /  1020.5 hPa SW 6 mph /  9.7 km/h 11 mph /  17.7 km/h 72 % 0 in /  0.0 mm
19:37 71.4 °F /  21.9 °C 61.9 °F /  16.6 °C 30.1 in /  1020.5 hPa WSW 5 mph /  8.0 km/h 13 mph /  20.9 km/h 72 % 0 in /  0.0 mm
19:42 71.2 °F /  21.8 °C 62.1 °F /  16.7 °C 30.1 in /  1020.5 hPa West 2 mph /  3.2 km/h 13 mph /  20.9 km/h 73 % 0 in /  0.0 mm
19:47 71.2 °F /  21.8 °C 62.1 °F /  16.7 °C 30.1 in /  1020.5 hPa SW 3 mph /  4.8 km/h 13 mph /  20.9 km/h 73 % 0 in /  0.0 mm
19:52 71.2 °F /  21.8 °C 62.1 °F /  16.7 °C 30.2 in /  1020.9 hPa West 8 mph /  12.9 km/h 11 mph /  17.7 km/h 73 % 0 in /  0.0 mm
19:57 71.2 °F /  21.8 °C 62.1 °F /  16.7 °C 30.2 in /  1020.9 hPa SW 8 mph /  12.9 km/h 11 mph /  17.7 km/h 73 % 0 in /  0.0 mm
20:02 71.2 °F /  21.8 °C 62.1 °F /  16.7 °C 30.2 in /  1020.9 hPa SW 4 mph /  6.4 km/h 10 mph /  16.1 km/h 73 % 0 in /  0.0 mm
20:07 71.1 °F /  21.7 °C 61.9 °F /  16.6 °C 30.2 in /  1020.9 hPa WSW 5 mph /  8.0 km/h 10 mph /  16.1 km/h 73 % 0 in /  0.0 mm
20:12 71.1 °F /  21.7 °C 61.9 °F /  16.6 °C 30.2 in /  1020.9 hPa SW 3 mph /  4.8 km/h 10 mph /  16.1 km/h 73 % 0 in /  0.0 mm
20:17 71.1 °F /  21.7 °C 62.4 °F /  16.9 °C 30.2 in /  1020.9 hPa SW 4 mph /  6.4 km/h 9 mph /  14.5 km/h 74 % 0 in /  0.0 mm
20:27 70.9 °F /  21.6 °C 62.2 °F /  16.8 °C 30.2 in /  1020.9 hPa SSW 2 mph /  3.2 km/h 9 mph /  14.5 km/h 74 % 0 in /  0.0 mm
20:37 70.9 °F /  21.6 °C 62.2 °F /  16.8 °C 30.2 in /  1020.9 hPa SW 5 mph /  8.0 km/h 7 mph /  11.3 km/h 74 % 0 in /  0.0 mm
20:42 70.9 °F /  21.6 °C 62.2 °F /  16.8 °C 30.2 in /  1021.2 hPa SW 3 mph /  4.8 km/h 7 mph /  11.3 km/h 74 % 0 in /  0.0 mm
20:48 70.7 °F /  21.5 °C 62.1 °F /  16.7 °C 30.2 in /  1021.2 hPa WSW 4 mph /  6.4 km/h 10 mph /  16.1 km/h 74 % 0 in /  0.0 mm
20:57 70.7 °F /  21.5 °C 61.7 °F /  16.5 °C 30.2 in /  1021.2 hPa WSW 4 mph /  6.4 km/h 9 mph /  14.5 km/h 73 % 0 in /  0.0 mm
21:07 70.5 °F /  21.4 °C 61.5 °F /  16.4 °C 30.2 in /  1021.2 hPa WSW 3 mph /  4.8 km/h 8 mph /  12.9 km/h 73 % 0 in /  0.0 mm
21:12 70.3 °F /  21.3 °C 61.3 °F /  16.3 °C 30.2 in /  1021.2 hPa WSW 1 mph /  1.6 km/h 8 mph /  12.9 km/h 73 % 0 in /  0.0 mm
21:17 70.3 °F /  21.3 °C 61.3 °F /  16.3 °C 30.2 in /  1021.6 hPa SW 1 mph /  1.6 km/h 7 mph /  11.3 km/h 73 % 0 in /  0.0 mm
21:22 70.2 °F /  21.2 °C 61.5 °F /  16.4 °C 30.2 in /  1021.2 hPa SW 2 mph /  3.2 km/h 5 mph /  8.0 km/h 74 % 0 in /  0.0 mm
21:27 70 °F /  21.1 °C 61.3 °F /  16.3 °C 30.2 in /  1021.6 hPa WSW 3 mph /  4.8 km/h 5 mph /  8.0 km/h 74 % 0 in /  0.0 mm
21:32 69.8 °F /  21.0 °C 61.2 °F /  16.2 °C 30.2 in /  1021.6 hPa WSW 3 mph /  4.8 km/h 8 mph /  12.9 km/h 74 % 0 in /  0.0 mm
21:37 69.6 °F /  20.9 °C 61 °F /  16.1 °C 30.2 in /  1021.6 hPa West 6 mph /  9.7 km/h 9 mph /  14.5 km/h 74 % 0 in /  0.0 mm
21:42 69.6 °F /  20.9 °C 60.6 °F /  15.9 °C 30.2 in /  1021.6 hPa West 3 mph /  4.8 km/h 9 mph /  14.5 km/h 73 % 0 in /  0.0 mm
21:52 69.4 °F /  20.8 °C 60.8 °F /  16.0 °C 30.2 in /  1021.6 hPa WSW 4 mph /  6.4 km/h 9 mph /  14.5 km/h 74 % 0 in /  0.0 mm
21:57 69.3 °F /  20.7 °C 60.6 °F /  15.9 °C 30.2 in /  1021.6 hPa SW 5 mph /  8.0 km/h 9 mph /  14.5 km/h 74 % 0 in /  0.0 mm
22:02 69.1 °F /  20.6 °C 60.4 °F /  15.8 °C 30.2 in /  1021.6 hPa WSW 5 mph /  8.0 km/h 8 mph /  12.9 km/h 74 % 0 in /  0.0 mm
22:07 69.1 °F /  20.6 °C 60.4 °F /  15.8 °C 30.2 in /  1021.6 hPa West 3 mph /  4.8 km/h 6 mph /  9.7 km/h 74 % 0 in /  0.0 mm
22:12 68.7 °F /  20.4 °C 60.4 °F /  15.8 °C 30.2 in /  1021.9 hPa SW 1 mph /  1.6 km/h 6 mph /  9.7 km/h 75 % 0 in /  0.0 mm
22:17 68.7 °F /  20.4 °C 60.4 °F /  15.8 °C 30.2 in /  1021.9 hPa WSW 2 mph /  3.2 km/h 6 mph /  9.7 km/h 75 % 0 in /  0.0 mm
22:22 68.7 °F /  20.4 °C 60.1 °F /  15.6 °C 30.2 in /  1021.6 hPa West 4 mph /  6.4 km/h 7 mph /  11.3 km/h 74 % 0 in /  0.0 mm
22:27 68.5 °F /  20.3 °C 59.9 °F /  15.5 °C 30.2 in /  1021.6 hPa WNW 4 mph /  6.4 km/h 7 mph /  11.3 km/h 74 % 0 in /  0.0 mm
22:32 68.5 °F /  20.3 °C 59.9 °F /  15.5 °C 30.2 in /  1021.6 hPa West 4 mph /  6.4 km/h 8 mph /  12.9 km/h 74 % 0 in /  0.0 mm
22:37 68.5 °F /  20.3 °C 59.9 °F /  15.5 °C 30.2 in /  1021.6 hPa SSW 4 mph /  6.4 km/h 10 mph /  16.1 km/h 74 % 0 in /  0.0 mm
22:42 68.7 °F /  20.4 °C 60.1 °F /  15.6 °C 30.2 in /  1021.6 hPa SW 2 mph /  3.2 km/h 10 mph /  16.1 km/h 74 % 0 in /  0.0 mm
22:47 68.5 °F /  20.3 °C 59.9 °F /  15.5 °C 30.2 in /  1021.6 hPa West 5 mph /  8.0 km/h 10 mph /  16.1 km/h 74 % 0 in /  0.0 mm
22:52 68.7 °F /  20.4 °C 60.1 °F /  15.6 °C 30.2 in /  1021.6 hPa WSW 3 mph /  4.8 km/h 10 mph /  16.1 km/h 74 % 0 in /  0.0 mm
22:57 68.7 °F /  20.4 °C 60.1 °F /  15.6 °C 30.2 in /  1021.6 hPa SW 7 mph /  11.3 km/h 10 mph /  16.1 km/h 74 % 0 in /  0.0 mm
23:02 68.7 °F /  20.4 °C 60.1 °F /  15.6 °C 30.2 in /  1021.6 hPa WSW 4 mph /  6.4 km/h 11 mph /  17.7 km/h 74 % 0 in /  0.0 mm
23:12 68.5 °F /  20.3 °C 59.9 °F /  15.5 °C 30.2 in /  1021.6 hPa West 6 mph /  9.7 km/h 12 mph /  19.3 km/h 74 % 0 in /  0.0 mm
23:17 68.4 °F /  20.2 °C 59.7 °F /  15.4 °C 30.2 in /  1021.6 hPa WSW 2 mph /  3.2 km/h 12 mph /  19.3 km/h 74 % 0 in /  0.0 mm
23:22 68.4 °F /  20.2 °C 60.1 °F /  15.6 °C 30.2 in /  1021.9 hPa SW 5 mph /  8.0 km/h 12 mph /  19.3 km/h 75 % 0 in /  0.0 mm
23:27 68.2 °F /  20.1 °C 59.9 °F /  15.5 °C 30.2 in /  1021.9 hPa West 3 mph /  4.8 km/h 11 mph /  17.7 km/h 75 % 0 in /  0.0 mm
23:32 67.8 °F /  19.9 °C 59.5 °F /  15.3 °C 30.2 in /  1021.9 hPa WSW 6 mph /  9.7 km/h 11 mph /  17.7 km/h 75 % 0 in /  0.0 mm
23:37 67.8 °F /  19.9 °C 59.9 °F /  15.5 °C 30.2 in /  1021.9 hPa SW 3 mph /  4.8 km/h 11 mph /  17.7 km/h 76 % 0 in /  0.0 mm
23:42 67.6 °F /  19.8 °C 59.7 °F /  15.4 °C 30.2 in /  1021.9 hPa WSW 3 mph /  4.8 km/h 11 mph /  17.7 km/h 76 % 0 in /  0.0 mm
23:47 67.5 °F /  19.7 °C 59.5 °F /  15.3 °C 30.2 in /  1021.9 hPa WSW 5 mph /  8.0 km/h 10 mph /  16.1 km/h 76 % 0 in /  0.0 mm
23:52 67.3 °F /  19.6 °C 59.9 °F /  15.5 °C 30.2 in /  1021.9 hPa WSW 2 mph /  3.2 km/h 10 mph /  16.1 km/h 77 % 0 in /  0.0 mm
23:57 67.3 °F /  19.6 °C 59.9 °F /  15.5 °C 30.2 in /  1021.9 hPa SW 4 mph /  6.4 km/h 10 mph /  16.1 km/h 77 % 0 in /  0.0 mm
Meteo18
Compliments of Weather Underground - 4 mb

Script developed by  Jim McMurry - jmcmurry@mwt.net Adapted for the template by  Wim van der Kuil - Leuven-Template.eu

You find our weather info also at:

European Weather Network

Weather Underground

Equipment we use:

Weather-station
Davis Vue

Weather-program
Meteohub

Weather-server
Raspberry PI 2 B+

Provider
1 and 1

Davis Vue

Meteohub

Raspberry PI 2 B+

1 and 1